createdAt,value
2023-04-23T00:02:08.335Z,4.90
2023-04-23T00:04:38.121Z,6.35
2023-04-23T00:07:05.655Z,5.85
2023-04-23T00:09:33.016Z,6.18
2023-04-23T00:12:00.263Z,7.25
2023-04-23T00:14:27.299Z,7.05
2023-04-23T00:16:53.925Z,7.88
2023-04-23T00:19:21.134Z,7.55
2023-04-23T00:21:47.731Z,7.22
2023-04-23T00:24:14.742Z,4.53
2023-04-23T00:26:41.483Z,7.53
2023-04-23T00:29:08.512Z,5.13
2023-04-23T00:31:35.189Z,8.80
2023-04-23T00:34:01.774Z,5.75
2023-04-23T00:36:28.712Z,5.82
2023-04-23T00:38:55.443Z,5.20
2023-04-23T00:41:22.116Z,6.70
2023-04-23T00:43:49.125Z,2.80
2023-04-23T00:46:16.877Z,7.20
2023-04-23T00:48:44.000Z,4.07
2023-04-23T00:51:11.408Z,7.93
2023-04-23T00:53:37.983Z,7.65
2023-04-23T00:56:05.531Z,5.20
2023-04-23T00:58:32.557Z,3.53
2023-04-23T01:00:59.312Z,9.57
2023-04-23T01:03:27.375Z,3.90
2023-04-23T01:05:54.293Z,4.20
2023-04-23T01:08:23.665Z,5.40
2023-04-23T01:10:50.866Z,4.20
2023-04-23T01:13:17.963Z,5.30
2023-04-23T01:15:45.454Z,8.07
2023-04-23T01:18:13.143Z,9.18
2023-04-23T01:20:39.938Z,5.55
2023-04-23T01:23:07.263Z,4.85
2023-04-23T01:25:34.492Z,4.07
2023-04-23T01:28:01.450Z,6.53
2023-04-23T01:30:28.337Z,6.65
2023-04-23T01:32:56.115Z,4.90
2023-04-23T01:35:23.268Z,9.65
2023-04-23T01:37:51.898Z,4.25
2023-04-23T01:40:19.034Z,5.32
2023-04-23T01:42:45.692Z,8.15
2023-04-23T01:45:12.404Z,4.28
2023-04-23T01:47:39.265Z,5.53
2023-04-23T01:50:06.261Z,5.53
2023-04-23T01:52:32.940Z,5.93
2023-04-23T01:54:59.585Z,5.47
2023-04-23T01:57:26.947Z,4.57
2023-04-23T02:00:13.743Z,6.57
2023-04-23T02:02:41.573Z,5.38
2023-04-23T02:05:28.836Z,5.68
2023-04-23T02:07:55.555Z,5.22
2023-04-23T02:10:22.351Z,4.47
2023-04-23T02:12:49.009Z,3.53
2023-04-23T02:15:16.350Z,4.13
2023-04-23T02:17:43.005Z,6.25
2023-04-23T02:20:10.820Z,8.88
2023-04-23T02:22:40.984Z,7.00
2023-04-23T02:25:08.520Z,5.53
2023-04-23T02:27:35.639Z,5.57
2023-04-23T02:30:02.385Z,4.00
2023-04-23T02:32:28.951Z,5.50
2023-04-23T02:34:56.287Z,6.30
2023-04-23T02:37:22.884Z,6.13
2023-04-23T02:39:49.554Z,5.22
2023-04-23T02:42:16.306Z,5.88
2023-04-23T02:44:43.161Z,5.53
2023-04-23T02:47:10.164Z,6.65
2023-04-23T02:49:36.788Z,5.95
2023-04-23T02:52:03.823Z,6.75
2023-04-23T02:54:32.492Z,5.15
2023-04-23T02:56:59.241Z,4.22
2023-04-23T02:59:26.214Z,5.47
2023-04-23T03:01:52.965Z,6.55
2023-04-23T03:04:20.525Z,6.75
2023-04-23T03:06:48.123Z,5.68
2023-04-23T03:09:14.800Z,5.88
2023-04-23T03:11:41.512Z,6.93
2023-04-23T03:14:08.162Z,5.28
2023-04-23T03:16:34.928Z,6.70
2023-04-23T03:19:01.694Z,5.55
2023-04-23T03:21:28.386Z,6.53
2023-04-23T03:23:55.161Z,5.18
2023-04-23T03:26:21.881Z,6.47
2023-04-23T03:28:48.590Z,3.60
2023-04-23T03:31:15.856Z,4.78
2023-04-23T03:33:42.661Z,7.32
2023-04-23T03:36:09.123Z,5.57
2023-04-23T03:38:35.662Z,5.05
2023-04-23T03:41:02.220Z,2.80
2023-04-23T03:43:28.652Z,4.28
2023-04-23T03:45:55.291Z,3.63
2023-04-23T03:48:21.940Z,5.35
2023-04-23T03:50:48.656Z,3.90
2023-04-23T03:53:15.323Z,4.93
2023-04-23T03:55:41.830Z,5.35
2023-04-23T03:58:09.745Z,3.35
2023-04-23T04:00:36.564Z,4.75
2023-04-23T04:03:03.276Z,4.60
2023-04-23T04:05:30.060Z,5.45
2023-04-23T04:07:56.784Z,3.28
2023-04-23T04:10:23.388Z,4.35
2023-04-23T04:12:50.146Z,3.58
2023-04-23T04:15:17.615Z,4.88
2023-04-23T04:17:46.131Z,5.65
2023-04-23T04:20:13.105Z,5.43
2023-04-23T04:22:39.730Z,3.38
2023-04-23T04:25:07.030Z,5.18
2023-04-23T04:27:35.611Z,3.13
2023-04-23T04:30:02.394Z,5.18
2023-04-23T04:32:29.037Z,3.70
2023-04-23T04:34:55.623Z,4.15
2023-04-23T04:37:22.199Z,7.68
2023-04-23T04:39:48.834Z,4.38
2023-04-23T04:42:15.828Z,2.90
2023-04-23T04:44:43.740Z,3.40
2023-04-23T04:47:10.843Z,4.03
2023-04-23T04:49:38.373Z,4.13
2023-04-23T04:52:04.914Z,3.80
2023-04-23T04:54:31.360Z,4.65
2023-04-23T04:56:57.842Z,5.50
2023-04-23T04:59:24.331Z,2.75
2023-04-23T05:01:50.869Z,4.07
2023-04-23T05:04:17.431Z,3.25
2023-04-23T05:06:44.375Z,3.15
2023-04-23T05:09:11.181Z,3.28
2023-04-23T05:11:37.878Z,4.20
2023-04-23T05:14:04.716Z,4.57
2023-04-23T05:16:31.238Z,3.15
2023-04-23T05:18:57.842Z,3.20
2023-04-23T05:21:24.419Z,4.30
2023-04-23T05:23:51.043Z,3.10
2023-04-23T05:26:18.465Z,4.15
2023-04-23T05:28:45.070Z,2.78
2023-04-23T05:31:11.505Z,4.25
2023-04-23T05:33:49.215Z,5.07
2023-04-23T05:36:17.541Z,4.60
2023-04-23T05:38:43.984Z,3.00
2023-04-23T05:41:10.495Z,3.53
2023-04-23T05:43:36.985Z,3.13
2023-04-23T05:46:06.615Z,3.83
2023-04-23T05:48:33.650Z,4.45
2023-04-23T05:51:00.184Z,2.97
2023-04-23T05:53:27.680Z,2.78
2023-04-23T05:55:54.206Z,5.30
2023-04-23T05:58:20.853Z,3.35
2023-04-23T06:00:47.423Z,4.43
2023-04-23T06:03:14.883Z,2.30
2023-04-23T06:05:43.292Z,3.58
2023-04-23T06:08:09.809Z,3.72
2023-04-23T06:10:36.348Z,4.03
2023-04-23T06:13:02.969Z,2.95
2023-04-23T06:15:29.406Z,3.70
2023-04-23T06:17:56.102Z,3.85
2023-04-23T06:20:22.820Z,2.45
2023-04-23T06:22:49.946Z,2.78
2023-04-23T06:25:16.457Z,2.50
2023-04-23T06:27:42.907Z,2.60
2023-04-23T06:30:09.773Z,2.78
2023-04-23T06:32:36.368Z,2.45
2023-04-23T06:35:04.530Z,2.50
2023-04-23T06:37:31.996Z,2.28
2023-04-23T06:39:59.365Z,2.95
2023-04-23T06:42:26.047Z,3.40
2023-04-23T06:44:52.464Z,2.80
2023-04-23T06:47:19.679Z,3.15
2023-04-23T06:49:46.361Z,3.13
2023-04-23T06:52:12.910Z,3.58
2023-04-23T06:54:39.755Z,2.40
2023-04-23T06:57:06.859Z,3.10
2023-04-23T06:59:33.575Z,3.30
2023-04-23T07:02:00.543Z,2.17
2023-04-23T07:04:27.450Z,3.40
2023-04-23T07:06:54.404Z,2.10
2023-04-23T07:09:21.193Z,3.10
2023-04-23T07:11:47.894Z,3.30
2023-04-23T07:14:14.817Z,3.55
2023-04-23T07:16:41.553Z,2.30
2023-04-23T07:19:08.301Z,3.45
2023-04-23T07:21:35.009Z,4.57
2023-04-23T07:24:06.999Z,2.72
2023-04-23T07:26:34.641Z,2.75
2023-04-23T07:29:01.568Z,2.63
2023-04-23T07:31:28.659Z,3.17
2023-04-23T07:33:56.303Z,2.95
2023-04-23T07:36:23.248Z,2.45
2023-04-23T07:38:51.189Z,3.10
2023-04-23T07:41:18.356Z,2.47
2023-04-23T07:43:45.270Z,2.33
2023-04-23T07:46:12.128Z,2.83
2023-04-23T07:48:39.133Z,3.22
2023-04-23T07:51:06.762Z,3.65
2023-04-23T07:53:33.666Z,2.40
2023-04-23T07:56:00.808Z,2.83
2023-04-23T07:58:27.485Z,4.25
2023-04-23T08:00:54.054Z,2.72
2023-04-23T08:03:20.935Z,3.03
2023-04-23T08:05:48.133Z,2.80
2023-04-23T08:08:14.903Z,3.10
2023-04-23T08:10:41.559Z,3.97
2023-04-23T08:13:08.143Z,9.65
2023-04-23T08:15:34.847Z,3.63
2023-04-23T08:18:01.593Z,2.45
2023-04-23T08:20:28.223Z,2.78
2023-04-23T08:22:55.830Z,7.80
2023-04-23T08:25:22.527Z,130.73
2023-04-23T08:27:49.280Z,265.08
2023-04-23T08:30:15.861Z,246.02
2023-04-23T08:32:42.472Z,203.35
2023-04-23T08:35:09.633Z,131.93
2023-04-23T08:37:36.421Z,84.70
2023-04-23T08:40:03.162Z,67.97
2023-04-23T08:42:38.678Z,61.88
2023-04-23T08:45:05.962Z,67.85
2023-04-23T08:47:33.377Z,62.75
2023-04-23T08:50:00.158Z,74.85
2023-04-23T08:52:29.657Z,64.35
2023-04-23T08:54:59.914Z,123.78
2023-04-23T08:57:26.938Z,67.00
2023-04-23T08:59:53.523Z,59.10
2023-04-23T09:02:20.777Z,109.57
2023-04-23T09:04:50.921Z,168.57
2023-04-23T09:07:18.512Z,102.53
2023-04-23T09:09:45.344Z,72.57
2023-04-23T09:12:12.225Z,71.18
2023-04-23T09:14:39.325Z,373.98
2023-04-23T09:17:06.074Z,72.55
2023-04-23T09:19:33.146Z,66.05
2023-04-23T09:22:02.263Z,71.60
2023-04-23T09:24:28.928Z,61.83
2023-04-23T09:26:55.629Z,62.10
2023-04-23T09:29:24.143Z,60.13
2023-04-23T09:31:51.975Z,47.72
2023-04-23T09:34:19.642Z,62.45
2023-04-23T09:36:47.849Z,63.63
2023-04-23T09:39:16.027Z,58.28
2023-04-23T09:41:42.830Z,58.95
2023-04-23T09:44:09.504Z,57.75
2023-04-23T09:46:37.350Z,56.58
2023-04-23T09:49:04.735Z,59.33
2023-04-23T09:51:31.512Z,54.78
2023-04-23T09:53:58.440Z,55.30
2023-04-23T09:56:25.401Z,55.70
2023-04-23T09:58:52.546Z,54.35
2023-04-23T10:01:19.357Z,54.20
2023-04-23T10:03:47.346Z,49.83
2023-04-23T10:06:25.789Z,53.15
2023-04-23T10:09:02.869Z,50.95
2023-04-23T10:11:30.204Z,54.47
2023-04-23T10:13:57.094Z,51.22
2023-04-23T10:16:26.904Z,55.20
2023-04-23T10:19:00.161Z,50.30
2023-04-23T10:21:32.131Z,48.17
2023-04-23T10:24:04.060Z,50.30
2023-04-23T10:26:31.823Z,49.90
2023-04-23T10:29:00.400Z,47.78
2023-04-23T10:31:27.640Z,49.42
2023-04-23T10:33:58.356Z,49.30
2023-04-23T10:36:27.893Z,45.13
2023-04-23T10:38:59.085Z,44.45
2023-04-23T10:41:28.722Z,46.08
2023-04-23T10:43:55.342Z,46.13
2023-04-23T10:46:29.657Z,46.10
2023-04-23T10:49:25.667Z,47.90
2023-04-23T10:52:18.924Z,45.20
2023-04-23T10:54:49.501Z,46.50
2023-04-23T10:57:16.263Z,51.75
2023-04-23T10:59:52.820Z,51.28
2023-04-23T11:02:19.814Z,48.10
2023-04-23T11:04:47.561Z,44.28
2023-04-23T11:07:14.407Z,43.92
2023-04-23T11:09:46.181Z,47.40
2023-04-23T11:12:24.656Z,48.75
2023-04-23T11:14:52.205Z,42.35
2023-04-23T11:17:22.188Z,42.25
2023-04-23T11:20:04.076Z,40.72
2023-04-23T11:22:38.111Z,40.65
2023-04-23T11:25:06.974Z,42.63
2023-04-23T11:27:33.723Z,41.20
2023-04-23T11:30:03.948Z,38.55
2023-04-23T11:32:30.669Z,39.58
2023-04-23T11:34:58.180Z,43.03
2023-04-23T11:37:24.861Z,39.05
2023-04-23T11:39:51.812Z,38.97
2023-04-23T11:42:20.579Z,38.67
2023-04-23T11:44:48.042Z,37.10
2023-04-23T11:47:16.384Z,36.45
2023-04-23T11:49:44.654Z,37.83
2023-04-23T11:52:12.495Z,34.95
2023-04-23T11:54:42.444Z,40.47
2023-04-23T11:57:10.444Z,36.60
2023-04-23T11:59:37.352Z,36.22
2023-04-23T12:02:04.125Z,37.90
2023-04-23T12:04:31.582Z,32.90
2023-04-23T12:06:59.171Z,32.65
2023-04-23T12:09:27.522Z,37.03
2023-04-23T12:11:54.398Z,35.67
2023-04-23T12:14:27.098Z,33.95
2023-04-23T12:16:53.839Z,32.60
2023-04-23T12:19:21.447Z,34.88
2023-04-23T12:21:55.298Z,33.25
2023-04-23T12:24:27.324Z,33.67
2023-04-23T12:26:58.627Z,31.52
2023-04-23T12:29:25.583Z,30.23
2023-04-23T12:31:52.790Z,31.35
2023-04-23T12:34:20.346Z,32.63
2023-04-23T12:36:48.121Z,30.27
2023-04-23T12:39:25.562Z,31.40
2023-04-23T12:41:53.309Z,28.33
2023-04-23T12:44:20.565Z,29.15
2023-04-23T12:46:51.532Z,28.83
2023-04-23T12:49:18.402Z,28.90
2023-04-23T12:51:45.122Z,30.90
2023-04-23T12:54:11.919Z,31.25
2023-04-23T12:56:38.595Z,26.92
2023-04-23T12:59:05.701Z,27.90
2023-04-23T13:01:32.803Z,25.60
2023-04-23T13:03:59.566Z,25.33
2023-04-23T13:06:26.684Z,26.70
2023-04-23T13:08:54.365Z,29.85
2023-04-23T13:11:21.107Z,27.42
2023-04-23T13:13:47.928Z,25.95
2023-04-23T13:16:15.337Z,24.60
2023-04-23T13:18:41.901Z,26.73
2023-04-23T13:21:09.861Z,17.80
2023-04-23T13:23:36.785Z,24.98
2023-04-23T13:26:03.944Z,24.55
2023-04-23T13:28:30.523Z,24.00
2023-04-23T13:30:57.161Z,24.80
2023-04-23T13:33:23.724Z,28.05
2023-04-23T13:35:50.380Z,25.95
2023-04-23T13:38:17.292Z,19.10
2023-04-23T13:40:43.983Z,23.05
2023-04-23T13:43:10.660Z,27.00
2023-04-23T13:45:37.545Z,20.83
2023-04-23T13:48:05.197Z,23.05
2023-04-23T13:50:31.992Z,23.80
2023-04-23T13:52:58.580Z,22.05
2023-04-23T13:55:25.346Z,21.17
2023-04-23T13:57:52.095Z,21.45
2023-04-23T14:00:18.883Z,22.85
2023-04-23T14:02:45.724Z,20.17
2023-04-23T14:05:12.437Z,16.08
2023-04-23T14:07:39.004Z,21.00
2023-04-23T14:10:06.020Z,19.58
2023-04-23T14:12:32.623Z,18.40
2023-04-23T14:14:59.358Z,19.88
2023-04-23T14:17:25.931Z,20.90
2023-04-23T14:19:52.582Z,20.30
2023-04-23T14:22:19.243Z,20.30
2023-04-23T14:24:49.659Z,17.65
2023-04-23T14:27:16.174Z,21.23
2023-04-23T14:29:47.032Z,18.05
2023-04-23T14:32:14.413Z,17.40
2023-04-23T14:34:41.140Z,17.95
2023-04-23T14:37:07.903Z,18.88
2023-04-23T14:39:34.543Z,18.83
2023-04-23T14:42:01.368Z,19.17
2023-04-23T14:44:28.020Z,17.38
2023-04-23T14:46:55.001Z,17.90
2023-04-23T14:49:21.613Z,17.83
2023-04-23T14:51:50.929Z,18.25
2023-04-23T14:54:17.729Z,17.63
2023-04-23T14:56:44.378Z,20.58
2023-04-23T14:59:11.169Z,23.13
2023-04-23T15:01:38.017Z,22.67
2023-04-23T15:04:05.025Z,28.08
2023-04-23T15:06:31.597Z,51.03
2023-04-23T15:08:58.201Z,34.80
2023-04-23T15:11:24.798Z,99.72
2023-04-23T15:13:51.402Z,91.40
2023-04-23T15:16:44.124Z,47.78
2023-04-23T15:19:13.269Z,36.03
2023-04-23T15:21:41.984Z,37.80
2023-04-23T15:24:08.760Z,35.35
2023-04-23T15:26:36.457Z,27.35
2023-04-23T15:29:04.085Z,26.10
2023-04-23T15:31:30.650Z,23.90
2023-04-23T15:33:57.427Z,22.67
2023-04-23T15:36:23.976Z,24.63
2023-04-23T15:38:50.748Z,22.10
2023-04-23T15:41:17.527Z,59.33
2023-04-23T15:43:44.047Z,23.33
2023-04-23T15:46:10.972Z,25.58
2023-04-23T15:48:37.610Z,25.27
2023-04-23T15:51:04.226Z,22.92
2023-04-23T15:53:30.802Z,24.70
2023-04-23T15:55:57.704Z,19.13
2023-04-23T15:58:24.224Z,21.83
2023-04-23T16:00:50.903Z,19.25
2023-04-23T16:03:17.557Z,27.27
2023-04-23T16:05:45.061Z,19.10
2023-04-23T16:08:12.032Z,20.17
2023-04-23T16:10:38.640Z,20.08
2023-04-23T16:13:06.386Z,23.55
2023-04-23T16:15:33.370Z,18.42
2023-04-23T16:18:00.313Z,18.55
2023-04-23T16:20:28.303Z,18.58
2023-04-23T16:22:55.266Z,20.48
2023-04-23T16:25:22.113Z,18.20
2023-04-23T16:27:48.950Z,17.70
2023-04-23T16:30:15.923Z,17.48
2023-04-23T16:32:42.620Z,15.05
2023-04-23T16:35:09.588Z,16.60
2023-04-23T16:37:36.303Z,15.80
2023-04-23T16:40:02.903Z,15.40
2023-04-23T16:42:29.585Z,15.30
2023-04-23T16:44:56.271Z,17.58
2023-04-23T16:47:22.970Z,17.45
2023-04-23T16:49:49.850Z,17.00
2023-04-23T16:52:16.529Z,13.98
2023-04-23T16:54:43.502Z,14.60
2023-04-23T16:57:10.489Z,13.50
2023-04-23T16:59:37.679Z,15.40
2023-04-23T17:02:04.371Z,14.27
2023-04-23T17:04:31.186Z,14.57
2023-04-23T17:06:57.902Z,16.67
2023-04-23T17:09:24.485Z,13.50
2023-04-23T17:11:51.161Z,15.52
2023-04-23T17:14:17.882Z,12.90
2023-04-23T17:16:44.753Z,11.80
2023-04-23T17:19:11.687Z,11.23
2023-04-23T17:21:38.504Z,11.40
2023-04-23T17:24:05.580Z,9.85
2023-04-23T17:26:32.198Z,11.75
2023-04-23T17:28:58.780Z,8.38
2023-04-23T17:31:25.392Z,10.45
2023-04-23T17:33:53.741Z,7.85
2023-04-23T17:36:20.347Z,8.52
2023-04-23T17:38:46.921Z,10.13
2023-04-23T17:41:13.935Z,10.90
2023-04-23T17:43:41.164Z,7.07
2023-04-23T17:46:08.021Z,8.25
2023-04-23T17:48:34.602Z,6.85
2023-04-23T17:51:02.035Z,8.20
2023-04-23T17:53:29.196Z,7.03
2023-04-23T17:55:59.791Z,6.60
2023-04-23T17:58:26.887Z,6.20
2023-04-23T18:00:53.663Z,6.90
2023-04-23T18:03:21.999Z,5.80
2023-04-23T18:05:48.903Z,6.50
2023-04-23T18:08:19.675Z,5.35
2023-04-23T18:10:46.313Z,5.10
2023-04-23T18:13:13.632Z,4.43
2023-04-23T18:15:42.233Z,5.25
2023-04-23T18:18:09.079Z,6.10
2023-04-23T18:20:38.494Z,4.43
2023-04-23T18:23:05.459Z,5.13
2023-04-23T18:25:32.417Z,4.03
2023-04-23T18:27:59.021Z,4.28
2023-04-23T18:30:25.839Z,5.25
2023-04-23T18:32:57.280Z,3.95
2023-04-23T18:35:23.904Z,3.97
2023-04-23T18:37:54.343Z,3.13
2023-04-23T18:40:21.962Z,3.55
2023-04-23T18:42:48.577Z,2.83
2023-04-23T18:45:15.170Z,3.63
2023-04-23T18:47:50.859Z,3.00
2023-04-23T18:50:43.668Z,2.70
2023-04-23T18:53:10.317Z,2.90
2023-04-23T18:55:37.182Z,3.03
2023-04-23T18:58:03.944Z,4.45
2023-04-23T19:00:33.941Z,8.25
2023-04-23T19:03:02.735Z,3.55
2023-04-23T19:05:33.899Z,2.38
2023-04-23T19:08:00.849Z,2.42
2023-04-23T19:10:27.423Z,2.25
2023-04-23T19:12:54.644Z,2.47
2023-04-23T19:15:21.901Z,2.42
2023-04-23T19:17:49.133Z,4.10
2023-04-23T19:20:17.630Z,2.78
2023-04-23T19:22:44.640Z,2.55
2023-04-23T19:25:11.625Z,2.30
2023-04-23T19:27:38.280Z,4.10
2023-04-23T19:30:05.820Z,4.85
2023-04-23T19:32:35.854Z,3.42
2023-04-23T19:35:03.434Z,2.70
2023-04-23T19:37:30.323Z,2.60
2023-04-23T19:39:56.817Z,2.08
2023-04-23T19:42:23.366Z,1.75
2023-04-23T19:44:50.100Z,2.05
2023-04-23T19:47:17.167Z,2.88
2023-04-23T19:49:44.135Z,5.25
2023-04-23T19:52:21.450Z,2.10
2023-04-23T19:54:51.230Z,1.80
2023-04-23T19:57:22.346Z,1.90
2023-04-23T19:59:49.000Z,1.85
2023-04-23T20:02:16.824Z,1.83
2023-04-23T20:04:46.580Z,1.67
2023-04-23T20:07:17.865Z,2.35
2023-04-23T20:09:44.574Z,1.80
2023-04-23T20:12:11.508Z,1.50
2023-04-23T20:14:38.154Z,2.00
2023-04-23T20:17:04.918Z,3.42
2023-04-23T20:19:31.520Z,2.63
2023-04-23T20:21:58.098Z,2.35
2023-04-23T20:24:24.876Z,2.20
2023-04-23T20:26:51.503Z,2.90
2023-04-23T20:29:18.039Z,4.18
2023-04-23T20:31:49.333Z,4.93
2023-04-23T20:34:16.698Z,3.85
2023-04-23T20:36:43.559Z,4.03
2023-04-23T20:39:11.036Z,3.88
2023-04-23T20:41:37.631Z,4.28
2023-04-23T20:44:05.355Z,4.30
2023-04-23T20:46:32.907Z,4.60
2023-04-23T20:49:03.490Z,2.92
2023-04-23T20:51:30.159Z,3.65
2023-04-23T20:53:59.459Z,2.78
2023-04-23T20:56:26.644Z,3.08
2023-04-23T20:58:53.397Z,2.95
2023-04-23T21:01:20.150Z,3.33
2023-04-23T21:03:47.053Z,4.07
2023-04-23T21:06:13.819Z,2.88
2023-04-23T21:08:42.967Z,3.75
2023-04-23T21:11:16.577Z,3.38
2023-04-23T21:13:43.406Z,5.07
2023-04-23T21:16:11.495Z,4.55
2023-04-23T21:18:38.760Z,3.40
2023-04-23T21:21:05.524Z,3.47
2023-04-23T21:23:32.555Z,3.42
2023-04-23T21:25:59.197Z,3.13
2023-04-23T21:28:25.857Z,3.13
2023-04-23T21:30:53.237Z,6.55
2023-04-23T21:33:20.697Z,4.28
2023-04-23T21:35:47.652Z,4.60
2023-04-23T21:38:14.262Z,3.03
2023-04-23T21:40:41.300Z,2.42
2023-04-23T21:43:07.995Z,3.42
2023-04-23T21:45:34.835Z,3.08
2023-04-23T21:48:02.000Z,3.47
2023-04-23T21:50:29.637Z,4.43
2023-04-23T21:52:58.749Z,2.25
2023-04-23T21:55:26.172Z,2.35
2023-04-23T21:57:54.884Z,4.45
2023-04-23T22:00:21.884Z,2.90
2023-04-23T22:02:48.650Z,4.65
2023-04-23T22:05:22.524Z,2.60
2023-04-23T22:07:50.019Z,2.17
2023-04-23T22:10:16.866Z,2.70
2023-04-23T22:12:44.028Z,2.88
2023-04-23T22:15:13.107Z,2.80
2023-04-23T22:17:39.947Z,2.45
2023-04-23T22:20:07.116Z,3.15
2023-04-23T22:22:34.556Z,2.15
2023-04-23T22:25:02.100Z,2.50
2023-04-23T22:27:28.611Z,2.17
2023-04-23T22:29:55.302Z,2.50
2023-04-23T22:32:21.971Z,4.05
2023-04-23T22:34:48.522Z,3.05
2023-04-23T22:37:15.000Z,2.70
2023-04-23T22:39:41.719Z,3.05
2023-04-23T22:42:08.520Z,2.13
2023-04-23T22:44:34.945Z,2.45
2023-04-23T22:47:01.398Z,2.35
2023-04-23T22:49:27.912Z,2.47
2023-04-23T22:51:54.441Z,1.85
2023-04-23T22:54:21.063Z,2.40
2023-04-23T22:56:47.540Z,3.50
2023-04-23T22:59:14.031Z,1.98
2023-04-23T23:01:41.068Z,2.63
2023-04-23T23:04:07.724Z,3.22
2023-04-23T23:06:34.242Z,2.20
2023-04-23T23:09:00.772Z,2.95
2023-04-23T23:11:30.388Z,2.67
2023-04-23T23:13:57.309Z,2.40
2023-04-23T23:16:24.035Z,4.85
2023-04-23T23:18:50.747Z,3.30
2023-04-23T23:21:17.546Z,2.38
2023-04-23T23:23:44.310Z,2.30
2023-04-23T23:26:11.301Z,4.53
2023-04-23T23:28:37.767Z,3.08
2023-04-23T23:31:04.419Z,2.90
2023-04-23T23:33:31.220Z,2.88
2023-04-23T23:35:58.000Z,2.80
2023-04-23T23:38:24.841Z,3.60
2023-04-23T23:40:51.576Z,3.20
2023-04-23T23:43:18.168Z,2.17
2023-04-23T23:45:44.732Z,4.47
2023-04-23T23:48:11.392Z,2.38
2023-04-23T23:50:38.239Z,5.03
2023-04-23T23:53:04.913Z,2.60
2023-04-23T23:55:31.510Z,2.45
2023-04-23T23:57:58.268Z,2.22
